createdAt,value
2018-08-24T00:00:47.749Z,79.77
2018-08-24T00:01:47.761Z,79.47
2018-08-24T00:02:47.720Z,79.37
2018-08-24T00:03:47.711Z,80.88
2018-08-24T00:04:47.699Z,80.68
2018-08-24T00:05:47.688Z,80.71
2018-08-24T00:06:47.681Z,80.98
2018-08-24T00:07:47.689Z,80.91
2018-08-24T00:08:47.655Z,81.21
2018-08-24T00:09:47.643Z,81.21
2018-08-24T00:10:47.632Z,81.35
2018-08-24T00:11:47.621Z,81.35
2018-08-24T00:12:47.661Z,81.26
2018-08-24T00:13:47.603Z,82.26
2018-08-24T00:14:47.587Z,82.26
2018-08-24T00:15:47.577Z,82.86
2018-08-24T00:16:47.569Z,82.56
2018-08-24T00:17:47.556Z,82.80
2018-08-24T00:18:47.569Z,82.60
2018-08-24T00:19:47.534Z,83.00
2018-08-24T00:20:47.520Z,83.00
2018-08-24T00:21:47.513Z,83.00
2018-08-24T00:22:47.504Z,83.25
2018-08-24T00:23:47.516Z,84.31
2018-08-24T00:24:47.476Z,83.91
2018-08-24T00:25:47.466Z,83.20
2018-08-24T00:26:47.454Z,82.90
2018-08-24T00:27:47.442Z,83.91
2018-08-24T00:28:47.463Z,83.00
2018-08-24T00:29:47.421Z,83.00
2018-08-24T00:30:47.409Z,83.34
2018-08-24T00:31:47.484Z,83.95
2018-08-24T00:32:47.387Z,83.20
2018-08-24T00:33:47.376Z,83.51
2018-08-24T00:34:47.393Z,83.14
2018-08-24T00:35:47.354Z,83.04
2018-08-24T00:36:47.343Z,84.75
2018-08-24T00:37:47.336Z,83.14
2018-08-24T00:38:47.323Z,83.45
2018-08-24T00:39:47.316Z,83.99
2018-08-24T00:40:47.325Z,84.09
2018-08-24T00:41:47.290Z,84.29
2018-08-24T00:42:47.306Z,84.80
2018-08-24T00:43:47.272Z,85.90
2018-08-24T00:44:47.257Z,86.00
2018-08-24T00:45:47.271Z,86.41
2018-08-24T00:46:47.237Z,85.86
2018-08-24T00:47:47.226Z,86.30
2018-08-24T00:48:47.214Z,86.00
2018-08-24T00:49:47.204Z,86.41
2018-08-24T00:50:47.228Z,87.01
2018-08-24T00:51:47.182Z,88.52
2018-08-24T00:52:47.172Z,88.02
2018-08-24T00:53:47.161Z,87.92
2018-08-24T00:54:47.155Z,87.82
2018-08-24T00:55:47.145Z,87.62
2018-08-24T00:56:47.157Z,87.82
2018-08-24T00:57:47.119Z,87.71
2018-08-24T00:58:47.109Z,87.92
2018-08-24T00:59:47.097Z,87.62
2018-08-24T01:00:47.086Z,86.46
2018-08-24T01:01:47.075Z,87.47
2018-08-24T01:02:47.088Z,85.56
2018-08-24T01:03:47.054Z,84.45
2018-08-24T01:04:47.044Z,84.85
2018-08-24T01:05:47.031Z,83.14
2018-08-24T01:06:47.020Z,83.04
2018-08-24T01:07:47.037Z,80.69
2018-08-24T01:08:47.000Z,80.69
2018-08-24T01:09:46.987Z,80.65
2018-08-24T01:10:46.978Z,80.05
2018-08-24T01:11:46.968Z,79.64
2018-08-24T01:12:46.956Z,79.74
2018-08-24T01:13:46.971Z,79.44
2018-08-24T01:14:46.934Z,79.35
2018-08-24T01:15:46.925Z,78.90
2018-08-24T01:16:46.912Z,79.00
2018-08-24T01:17:46.902Z,79.85
2018-08-24T01:18:46.916Z,79.71
2018-08-24T01:19:46.881Z,79.10
2018-08-24T01:20:46.870Z,78.90
2018-08-24T01:21:46.858Z,78.94
2018-08-24T01:22:46.848Z,79.35
2018-08-24T01:23:46.866Z,78.90
2018-08-24T01:24:46.825Z,79.21
2018-08-24T01:25:46.815Z,78.80
2018-08-24T01:26:46.804Z,78.70
2018-08-24T01:27:46.792Z,78.60
2018-08-24T01:28:46.781Z,78.70
2018-08-24T01:29:46.798Z,78.90
2018-08-24T01:30:46.758Z,78.60
2018-08-24T01:31:46.747Z,79.21
2018-08-24T01:32:46.737Z,78.80
2018-08-24T01:33:46.727Z,78.80
2018-08-24T01:34:46.714Z,79.06
2018-08-24T01:35:46.728Z,79.81
2018-08-24T01:36:46.698Z,79.21
2018-08-24T01:37:46.680Z,79.71
2018-08-24T01:38:46.674Z,79.71
2018-08-24T01:39:46.658Z,79.61
2018-08-24T01:40:46.671Z,79.41
2018-08-24T01:41:46.636Z,79.61
2018-08-24T01:42:46.627Z,79.61
2018-08-24T01:43:46.614Z,79.37
2018-08-24T01:44:46.603Z,80.27
2018-08-24T01:45:46.621Z,79.37
2018-08-24T01:46:46.581Z,80.51
2018-08-24T01:47:46.574Z,80.01
2018-08-24T01:48:46.560Z,80.98
2018-08-24T01:49:46.550Z,80.71
2018-08-24T01:50:46.536Z,80.61
2018-08-24T01:51:46.550Z,81.12
2018-08-24T01:52:46.514Z,81.92
2018-08-24T01:53:46.502Z,82.42
2018-08-24T01:54:46.491Z,82.42
2018-08-24T01:55:46.488Z,82.86
2018-08-24T01:56:46.499Z,82.92
2018-08-24T01:57:46.458Z,82.97
2018-08-24T01:58:46.446Z,83.47
2018-08-24T01:59:46.435Z,83.57
2018-08-24T02:00:46.427Z,83.67
2018-08-24T02:01:46.413Z,83.97
2018-08-24T02:02:46.426Z,84.71
2018-08-24T02:03:46.395Z,85.31
2018-08-24T02:04:46.382Z,86.12
2018-08-24T02:05:46.369Z,86.32
2018-08-24T02:06:46.358Z,86.66
2018-08-24T02:07:46.371Z,87.27
2018-08-24T02:08:46.337Z,86.87
2018-08-24T02:09:46.329Z,86.87
2018-08-24T02:10:46.317Z,87.01
2018-08-24T02:11:46.306Z,87.57
2018-08-24T02:12:46.317Z,87.51
2018-08-24T02:13:46.283Z,86.91
2018-08-24T02:14:46.273Z,86.91
2018-08-24T02:15:46.264Z,87.21
2018-08-24T02:16:46.251Z,86.81
2018-08-24T02:17:46.264Z,86.30
2018-08-24T02:18:46.230Z,85.80
2018-08-24T02:19:46.226Z,86.30
2018-08-24T02:20:46.210Z,86.35
2018-08-24T02:21:46.198Z,86.04
2018-08-24T02:22:46.209Z,86.24
2018-08-24T02:23:46.175Z,86.24
2018-08-24T02:24:46.164Z,86.35
2018-08-24T02:25:46.153Z,86.51
2018-08-24T02:26:46.143Z,85.84
2018-08-24T02:27:46.159Z,86.35
2018-08-24T02:28:46.122Z,86.15
2018-08-24T02:29:46.110Z,86.24
2018-08-24T02:30:46.103Z,86.55
2018-08-24T02:31:46.089Z,85.84
2018-08-24T02:32:46.080Z,87.19
2018-08-24T02:33:46.099Z,86.04
2018-08-24T02:34:46.057Z,86.08
2018-08-24T02:35:46.050Z,86.44
2018-08-24T02:36:46.038Z,86.99
2018-08-24T02:37:46.026Z,86.79
2018-08-24T02:38:46.040Z,86.95
2018-08-24T02:39:46.003Z,87.19
2018-08-24T02:40:45.996Z,86.99
2018-08-24T02:41:45.983Z,86.99
2018-08-24T02:42:45.975Z,87.09
2018-08-24T02:43:45.991Z,87.90
2018-08-24T02:44:45.950Z,87.74
2018-08-24T02:45:45.939Z,87.84
2018-08-24T02:46:45.928Z,87.40
2018-08-24T02:47:45.919Z,87.13
2018-08-24T02:48:45.907Z,87.34
2018-08-24T02:49:45.921Z,87.94
2018-08-24T02:50:45.887Z,88.65
2018-08-24T02:51:45.879Z,88.85
2018-08-24T02:52:45.864Z,88.99
2018-08-24T02:53:45.854Z,88.65
2018-08-24T02:54:45.877Z,88.79
2018-08-24T02:55:45.833Z,89.79
2018-08-24T02:56:45.823Z,90.00
2018-08-24T02:57:45.810Z,89.03
2018-08-24T02:58:45.805Z,90.20
2018-08-24T02:59:45.790Z,90.45
2018-08-24T03:00:45.806Z,90.65
2018-08-24T03:01:45.768Z,90.34
2018-08-24T03:02:45.757Z,90.45
2018-08-24T03:03:45.747Z,90.45
2018-08-24T03:04:45.735Z,90.75
2018-08-24T03:05:45.762Z,90.69
2018-08-24T03:06:45.714Z,90.08
2018-08-24T03:07:45.704Z,90.08
2018-08-24T03:08:45.693Z,90.83
2018-08-24T03:09:45.684Z,90.53
2018-08-24T03:10:45.671Z,91.14
2018-08-24T03:11:45.684Z,90.73
2018-08-24T03:12:45.652Z,91.94
2018-08-24T03:13:45.639Z,92.19
2018-08-24T03:14:45.627Z,92.60
2018-08-24T03:15:45.615Z,93.10
2018-08-24T03:16:45.633Z,92.60
2018-08-24T03:17:45.596Z,92.80
2018-08-24T03:18:45.584Z,92.09
2018-08-24T03:19:45.583Z,92.24
2018-08-24T03:20:45.561Z,92.54
2018-08-24T03:21:45.551Z,92.74
2018-08-24T03:22:45.564Z,91.73
2018-08-24T03:23:45.528Z,92.54
2018-08-24T03:24:45.516Z,91.93
2018-08-24T03:25:45.507Z,93.08
2018-08-24T03:26:45.508Z,94.36
2018-08-24T03:27:45.514Z,94.66
2018-08-24T03:28:45.475Z,94.30
2018-08-24T03:29:45.463Z,94.10
2018-08-24T03:30:45.463Z,94.00
2018-08-24T03:31:45.441Z,94.30
2018-08-24T03:32:45.430Z,94.91
2018-08-24T03:33:45.448Z,94.71
2018-08-24T03:34:45.408Z,94.40
2018-08-24T03:35:45.397Z,94.50
2018-08-24T03:36:45.388Z,92.99
2018-08-24T03:37:45.377Z,92.38
2018-08-24T03:38:45.364Z,91.77
2018-08-24T03:39:45.378Z,91.57
2018-08-24T03:40:45.343Z,91.67
2018-08-24T03:41:45.331Z,91.57
2018-08-24T03:42:45.320Z,91.06
2018-08-24T03:43:45.310Z,91.47
2018-08-24T03:44:45.321Z,91.97
2018-08-24T03:45:45.348Z,90.36
2018-08-24T03:46:45.278Z,90.25
2018-08-24T03:47:45.266Z,90.66
2018-08-24T03:48:45.254Z,90.56
2018-08-24T03:49:45.271Z,90.36
2018-08-24T03:50:45.235Z,90.05
2018-08-24T03:51:45.221Z,90.96
2018-08-24T03:52:45.225Z,90.60
2018-08-24T03:53:45.201Z,90.80
2018-08-24T03:54:45.188Z,90.30
2018-08-24T03:55:45.207Z,89.59
2018-08-24T03:56:45.167Z,88.98
2018-08-24T03:57:45.155Z,88.53
2018-08-24T03:58:45.146Z,89.04
2018-08-24T03:59:45.134Z,89.08
2018-08-24T04:00:45.129Z,88.98
2018-08-24T04:01:45.136Z,88.74
2018-08-24T04:02:45.101Z,88.94
2018-08-24T04:03:45.090Z,89.28
2018-08-24T04:04:45.080Z,88.37
2018-08-24T04:05:45.068Z,88.07
2018-08-24T04:06:45.081Z,87.32
2018-08-24T04:07:45.046Z,88.27
2018-08-24T04:08:45.035Z,87.97
2018-08-24T04:09:45.031Z,88.27
2018-08-24T04:10:45.016Z,87.87
2018-08-24T04:11:45.031Z,87.97
2018-08-24T04:12:45.053Z,88.17
2018-08-24T04:13:44.982Z,88.48
2018-08-24T04:14:44.971Z,88.68
2018-08-24T04:15:44.959Z,89.12
2018-08-24T04:16:44.950Z,89.12
2018-08-24T04:17:44.962Z,89.02
2018-08-24T04:18:44.927Z,88.92
2018-08-24T04:19:44.916Z,89.63
2018-08-24T04:20:44.905Z,89.32
2018-08-24T04:21:44.894Z,89.47
2018-08-24T04:22:44.908Z,89.37
2018-08-24T04:23:44.872Z,90.18
2018-08-24T04:24:44.863Z,90.58
2018-08-24T04:25:44.929Z,90.58
2018-08-24T04:26:44.840Z,91.09
2018-08-24T04:27:44.857Z,90.48
2018-08-24T04:28:44.820Z,90.02
2018-08-24T04:29:44.807Z,90.79
2018-08-24T04:30:44.797Z,91.03
2018-08-24T04:31:44.789Z,90.89
2018-08-24T04:32:44.805Z,90.73
2018-08-24T04:33:44.765Z,90.83
2018-08-24T04:34:44.762Z,91.58
2018-08-24T04:35:44.745Z,91.34
2018-08-24T04:36:44.732Z,91.74
2018-08-24T04:37:44.745Z,91.13
2018-08-24T04:38:44.713Z,91.64
2018-08-24T04:39:44.699Z,92.14
2018-08-24T04:40:44.688Z,91.44
2018-08-24T04:41:44.681Z,91.54
2018-08-24T04:42:44.694Z,91.13
2018-08-24T04:43:44.655Z,91.24
2018-08-24T04:44:44.648Z,90.62
2018-08-24T04:45:44.636Z,90.99
2018-08-24T04:46:44.623Z,90.69
2018-08-24T04:47:44.636Z,90.69
2018-08-24T04:48:44.601Z,90.18
2018-08-24T04:49:44.594Z,89.17
2018-08-24T04:50:44.582Z,89.47
2018-08-24T04:51:44.568Z,89.57
2018-08-24T04:52:44.583Z,89.26
2018-08-24T04:53:44.546Z,89.12
2018-08-24T04:54:44.536Z,88.92
2018-08-24T04:55:44.524Z,88.92
2018-08-24T04:56:44.515Z,88.21
2018-08-24T04:57:44.533Z,88.21
2018-08-24T04:58:44.497Z,88.27
2018-08-24T04:59:44.482Z,87.97
2018-08-24T05:00:44.471Z,87.87
2018-08-24T05:01:44.463Z,87.05
2018-08-24T05:02:44.448Z,87.16
2018-08-24T05:03:44.473Z,86.25
2018-08-24T05:04:44.431Z,86.25
2018-08-24T05:05:44.516Z,85.70
2018-08-24T05:06:44.407Z,85.19
2018-08-24T05:07:44.394Z,85.39
2018-08-24T05:08:44.383Z,86.41
2018-08-24T05:09:44.402Z,86.00
2018-08-24T05:10:44.361Z,85.50
2018-08-24T05:11:44.350Z,84.79
2018-08-24T05:12:44.338Z,85.66
2018-08-24T05:13:44.329Z,85.56
2018-08-24T05:14:44.341Z,86.71
2018-08-24T05:15:44.309Z,86.07
2018-08-24T05:16:44.296Z,85.76
2018-08-24T05:17:44.286Z,85.66
2018-08-24T05:18:44.275Z,85.36
2018-08-24T05:19:44.300Z,85.16
2018-08-24T05:20:44.251Z,85.76
2018-08-24T05:21:44.241Z,84.71
2018-08-24T05:22:44.228Z,85.02
2018-08-24T05:23:44.217Z,83.33
2018-08-24T05:24:44.224Z,84.20
2018-08-24T05:25:44.219Z,83.80
2018-08-24T05:26:44.185Z,83.40
2018-08-24T05:27:44.173Z,83.60
2018-08-24T05:28:44.162Z,82.79
2018-08-24T05:29:44.153Z,82.89
2018-08-24T05:30:44.170Z,82.99
2018-08-24T05:31:44.131Z,81.68
2018-08-24T05:32:44.126Z,82.55
2018-08-24T05:33:44.107Z,82.69
2018-08-24T05:34:44.097Z,81.54
2018-08-24T05:35:44.171Z,82.95
2018-08-24T05:36:44.098Z,81.34
2018-08-24T05:37:44.066Z,81.34
2018-08-24T05:38:44.053Z,82.14
2018-08-24T05:39:44.042Z,81.54
2018-08-24T05:40:44.031Z,81.13
2018-08-24T05:41:44.047Z,81.54
2018-08-24T05:42:44.010Z,81.74
2018-08-24T05:43:43.999Z,81.84
2018-08-24T05:44:43.989Z,81.74
2018-08-24T05:45:43.977Z,81.44
2018-08-24T05:46:43.971Z,81.34
2018-08-24T05:47:43.989Z,81.34
2018-08-24T05:48:43.960Z,81.30
2018-08-24T05:49:43.939Z,81.23
2018-08-24T05:50:43.922Z,81.40
2018-08-24T05:51:43.911Z,80.90
2018-08-24T05:52:43.924Z,80.79
2018-08-24T05:53:43.889Z,81.10
2018-08-24T05:54:43.878Z,80.08
2018-08-24T05:55:43.909Z,79.08
2018-08-24T05:56:43.857Z,79.04
2018-08-24T05:57:43.870Z,79.28
2018-08-24T05:58:43.835Z,79.54
2018-08-24T05:59:43.827Z,79.34
2018-08-24T06:00:43.816Z,79.74
2018-08-24T06:01:43.803Z,79.64
2018-08-24T06:02:43.823Z,79.64
2018-08-24T06:03:43.783Z,81.36
2018-08-24T06:04:43.772Z,81.36
2018-08-24T06:05:43.765Z,80.35
2018-08-24T06:06:43.750Z,81.05
2018-08-24T06:07:43.738Z,80.96
2018-08-24T06:08:43.757Z,79.24
2018-08-24T06:09:43.718Z,79.44
2018-08-24T06:10:43.716Z,79.21
2018-08-24T06:11:43.698Z,80.62
2018-08-24T06:12:43.687Z,79.41
2018-08-24T06:13:43.702Z,79.34
2018-08-24T06:14:43.664Z,79.30
2018-08-24T06:15:43.656Z,81.22
2018-08-24T06:16:43.731Z,79.54
2018-08-24T06:17:43.633Z,81.05
2018-08-24T06:18:43.623Z,81.02
2018-08-24T06:19:43.634Z,80.25
2018-08-24T06:20:43.600Z,80.85
2018-08-24T06:21:43.590Z,80.01
2018-08-24T06:22:43.578Z,80.11
2018-08-24T06:23:43.566Z,80.96
2018-08-24T06:24:43.586Z,79.64
2018-08-24T06:25:43.557Z,79.04
2018-08-24T06:26:43.539Z,79.54
2018-08-24T06:27:43.523Z,81.02
2018-08-24T06:28:43.512Z,79.91
2018-08-24T06:29:43.535Z,79.21
2018-08-24T06:30:43.494Z,79.21
2018-08-24T06:31:43.481Z,78.26
2018-08-24T06:32:43.526Z,77.04
2018-08-24T06:33:43.461Z,78.06
2018-08-24T06:34:43.453Z,77.55
2018-08-24T06:35:43.467Z,76.24
2018-08-24T06:36:43.427Z,76.40
2018-08-24T06:37:43.416Z,75.70
2018-08-24T06:38:43.405Z,76.00
2018-08-24T06:39:43.394Z,76.10
2018-08-24T06:40:43.383Z,75.67
2018-08-24T06:41:43.437Z,76.17
2018-08-24T06:42:43.361Z,76.77
2018-08-24T06:43:43.351Z,76.77
2018-08-24T06:44:43.342Z,76.94
2018-08-24T06:45:43.332Z,76.34
2018-08-24T06:46:43.341Z,76.14
2018-08-24T06:47:43.352Z,76.14
2018-08-24T06:48:43.296Z,75.83
2018-08-24T06:49:43.285Z,75.63
2018-08-24T06:50:43.273Z,75.39
2018-08-24T06:51:43.290Z,74.52
2018-08-24T06:52:43.250Z,74.42
2018-08-24T06:53:43.379Z,74.89
2018-08-24T06:54:43.228Z,74.22
2018-08-24T06:55:43.217Z,73.88
2018-08-24T06:56:43.209Z,73.68
2018-08-24T06:57:43.228Z,74.15
2018-08-24T06:58:43.185Z,73.78
2018-08-24T06:59:43.211Z,73.95
2018-08-24T07:00:43.162Z,73.65
2018-08-24T07:01:43.152Z,74.55
2018-08-24T07:02:43.139Z,72.44
2018-08-24T07:03:43.152Z,73.24
2018-08-24T07:04:43.118Z,72.41
2018-08-24T07:05:43.168Z,72.30
2018-08-24T07:06:43.095Z,71.77
2018-08-24T07:07:43.088Z,71.47
2018-08-24T07:08:43.097Z,72.17
2018-08-24T07:09:43.064Z,70.66
2018-08-24T07:10:43.057Z,70.96
2018-08-24T07:11:43.041Z,70.83
2018-08-24T07:12:43.054Z,69.92
2018-08-24T07:13:43.044Z,70.09
2018-08-24T07:14:43.014Z,70.19
2018-08-24T07:15:42.998Z,69.02
2018-08-24T07:16:42.987Z,69.59
2018-08-24T07:17:42.977Z,69.29
2018-08-24T07:18:42.994Z,70.09
2018-08-24T07:19:42.959Z,69.39
2018-08-24T07:20:42.945Z,69.49
2018-08-24T07:21:42.932Z,68.99
2018-08-24T07:22:42.921Z,69.79
2018-08-24T07:23:42.940Z,70.09
2018-08-24T07:24:42.900Z,70.29
2018-08-24T07:25:42.889Z,69.19
2018-08-24T07:26:42.887Z,70.23
2018-08-24T07:27:42.867Z,70.23
2018-08-24T07:28:42.862Z,70.23
2018-08-24T07:29:42.875Z,70.43
2018-08-24T07:30:42.835Z,70.19
2018-08-24T07:31:42.826Z,68.88
2018-08-24T07:32:42.814Z,68.68
2018-08-24T07:33:42.803Z,68.49
2018-08-24T07:34:42.838Z,68.25
2018-08-24T07:35:42.782Z,68.02
2018-08-24T07:36:42.770Z,67.32
2018-08-24T07:37:42.760Z,67.49
2018-08-24T07:38:42.751Z,67.35
2018-08-24T07:39:42.741Z,66.78
2018-08-24T07:40:42.750Z,67.29
2018-08-24T07:41:42.762Z,66.38
2018-08-24T07:42:42.705Z,66.01
2018-08-24T07:43:42.695Z,66.24
2018-08-24T07:44:42.686Z,67.25
2018-08-24T07:45:42.709Z,67.08
2018-08-24T07:46:42.660Z,67.58
2018-08-24T07:47:42.656Z,68.18
2018-08-24T07:48:42.643Z,68.59
2018-08-24T07:49:42.629Z,68.29
2018-08-24T07:50:42.737Z,68.29
2018-08-24T07:51:42.634Z,67.85
2018-08-24T07:52:42.600Z,68.49
2018-08-24T07:53:42.585Z,67.78
2018-08-24T07:54:42.577Z,67.65
2018-08-24T07:55:42.590Z,67.55
2018-08-24T07:56:42.553Z,66.95
2018-08-24T07:57:42.543Z,67.45
2018-08-24T07:58:42.540Z,66.55
2018-08-24T07:59:42.520Z,66.08
2018-08-24T08:00:42.546Z,66.38
2018-08-24T08:01:42.498Z,66.47
2018-08-24T08:02:42.487Z,66.55
2018-08-24T08:03:42.478Z,66.24
2018-08-24T08:04:42.469Z,66.31
2018-08-24T08:05:42.455Z,65.81
2018-08-24T08:06:42.468Z,66.11
2018-08-24T08:07:42.432Z,64.58
2018-08-24T08:08:42.429Z,65.28
2018-08-24T08:09:42.413Z,65.08
2018-08-24T08:10:42.399Z,64.40
2018-08-24T08:11:42.417Z,64.31
2018-08-24T08:12:42.511Z,65.08
2018-08-24T08:13:42.369Z,65.08
2018-08-24T08:14:42.357Z,64.68
2018-08-24T08:15:42.349Z,64.58
2018-08-24T08:16:42.363Z,63.67
2018-08-24T08:17:42.322Z,64.07
2018-08-24T08:18:42.404Z,63.28
2018-08-24T08:19:42.303Z,63.37
2018-08-24T08:20:42.290Z,64.37
2018-08-24T08:21:42.306Z,63.98
2018-08-24T08:22:42.269Z,64.34
2018-08-24T08:23:42.271Z,62.97
2018-08-24T08:24:42.305Z,62.77
2018-08-24T08:25:42.236Z,63.28
2018-08-24T08:26:42.251Z,64.18
2018-08-24T08:27:42.222Z,64.48
2018-08-24T08:28:42.205Z,63.47
2018-08-24T08:29:42.193Z,63.37
2018-08-24T08:30:42.181Z,63.47
2018-08-24T08:31:42.206Z,62.67
2018-08-24T08:32:42.163Z,62.77
2018-08-24T08:33:42.148Z,63.47
2018-08-24T08:34:42.138Z,63.07
2018-08-24T08:35:42.135Z,62.67
2018-08-24T08:36:42.116Z,63.07
2018-08-24T08:37:42.132Z,63.28
2018-08-24T08:38:42.095Z,62.74
2018-08-24T08:39:42.084Z,62.44
2018-08-24T08:40:42.075Z,61.94
2018-08-24T08:41:42.061Z,62.54
2018-08-24T08:42:42.074Z,61.84
2018-08-24T08:43:42.041Z,61.61
2018-08-24T08:44:42.029Z,61.54
2018-08-24T08:45:42.021Z,62.31
2018-08-24T08:46:42.009Z,62.51
2018-08-24T08:47:42.089Z,60.38
2018-08-24T08:48:41.992Z,60.48
2018-08-24T08:49:41.975Z,60.78
2018-08-24T08:50:41.966Z,60.98
2018-08-24T08:51:41.988Z,60.51
2018-08-24T08:52:41.991Z,60.88
2018-08-24T08:53:41.965Z,60.91
2018-08-24T08:54:41.926Z,60.81
2018-08-24T08:55:41.911Z,60.64
2018-08-24T08:56:41.951Z,61.44
2018-08-24T08:57:41.893Z,61.94
2018-08-24T08:58:41.909Z,62.54
2018-08-24T08:59:41.869Z,61.74
2018-08-24T09:00:41.863Z,61.97
2018-08-24T09:01:41.854Z,63.00
2018-08-24T09:02:41.836Z,63.07
2018-08-24T09:03:41.862Z,62.54
2018-08-24T09:04:41.813Z,62.31
2018-08-24T09:05:41.805Z,60.61
2018-08-24T09:06:41.795Z,60.11
2018-08-24T09:07:41.781Z,60.75
2018-08-24T09:08:41.771Z,59.45
2018-08-24T09:09:41.788Z,58.22
2018-08-24T09:10:41.752Z,59.30
2018-08-24T09:11:41.738Z,58.76
2018-08-24T09:12:41.728Z,58.26
2018-08-24T09:13:41.728Z,56.87
2018-08-24T09:14:41.713Z,56.70
2018-08-24T09:15:41.728Z,57.39
2018-08-24T09:16:41.697Z,57.32
2018-08-24T09:17:41.677Z,57.52
2018-08-24T09:18:41.668Z,56.72
2018-08-24T09:19:41.689Z,57.32
2018-08-24T09:20:41.648Z,57.39
2018-08-24T09:21:41.629Z,56.72
2018-08-24T09:22:41.621Z,56.35
2018-08-24T09:23:41.608Z,57.15
2018-08-24T09:24:41.601Z,57.98
2018-08-24T09:25:41.709Z,57.68
2018-08-24T09:26:41.581Z,57.28
2018-08-24T09:27:41.564Z,57.95
2018-08-24T09:28:41.555Z,58.15
2018-08-24T09:29:41.546Z,58.35
2018-08-24T09:30:41.556Z,58.12
2018-08-24T09:31:41.522Z,57.32
2018-08-24T09:32:41.689Z,57.52
2018-08-24T09:33:41.505Z,57.65
2018-08-24T09:34:41.491Z,56.82
2018-08-24T09:35:41.507Z,57.15
2018-08-24T09:36:41.470Z,57.24
2018-08-24T09:37:41.459Z,57.24
2018-08-24T09:38:41.447Z,57.65
2018-08-24T09:39:41.437Z,57.68
2018-08-24T09:40:41.456Z,57.60
2018-08-24T09:41:41.413Z,58.40
2018-08-24T09:42:41.405Z,59.33
2018-08-24T09:43:41.392Z,60.24
2018-08-24T09:44:41.382Z,60.64
2018-08-24T09:45:41.372Z,59.81
2018-08-24T09:46:41.397Z,59.81
2018-08-24T09:47:41.349Z,59.74
2018-08-24T09:48:41.475Z,60.21
2018-08-24T09:49:41.333Z,60.14
2018-08-24T09:50:41.318Z,60.44
2018-08-24T09:51:41.312Z,60.33
2018-08-24T09:52:41.320Z,61.04
2018-08-24T09:53:41.286Z,60.94
2018-08-24T09:54:41.278Z,61.04
2018-08-24T09:55:41.408Z,60.81
2018-08-24T09:56:41.273Z,60.78
2018-08-24T09:57:41.286Z,60.08
2018-08-24T09:58:41.241Z,59.15
2018-08-24T09:59:41.794Z,60.05
2018-08-24T10:00:41.216Z,58.92
2018-08-24T10:01:41.212Z,58.65
2018-08-24T10:02:41.295Z,58.75
2018-08-24T10:03:41.183Z,58.95
2018-08-24T10:04:41.174Z,59.55
2018-08-24T10:05:41.160Z,58.95
2018-08-24T10:06:41.174Z,59.15
2018-08-24T10:07:41.176Z,59.08
2018-08-24T10:08:41.135Z,58.48
2018-08-24T10:09:41.167Z,59.11
2018-08-24T10:10:41.104Z,58.43
2018-08-24T10:11:41.097Z,59.23
2018-08-24T10:12:41.093Z,59.13
2018-08-24T10:13:41.101Z,59.91
2018-08-24T10:14:41.066Z,59.41
2018-08-24T10:15:41.056Z,58.58
2018-08-24T10:16:41.054Z,57.48
2018-08-24T10:17:41.070Z,56.77
2018-08-24T10:18:41.074Z,57.05
2018-08-24T10:19:41.006Z,56.65
2018-08-24T10:20:41.010Z,57.24
2018-08-24T10:21:41.005Z,56.12
2018-08-24T10:22:40.979Z,56.39
2018-08-24T10:23:41.007Z,55.99
2018-08-24T10:24:40.968Z,55.99
2018-08-24T10:25:40.944Z,55.29
2018-08-24T10:26:40.960Z,54.97
2018-08-24T10:27:40.959Z,55.99
2018-08-24T10:28:41.094Z,56.32
2018-08-24T10:29:40.995Z,56.92
2018-08-24T10:30:40.893Z,56.09
2018-08-24T10:31:40.882Z,56.12
2018-08-24T10:32:40.870Z,56.05
2018-08-24T10:33:40.906Z,57.05
2018-08-24T10:34:40.868Z,57.05
2018-08-24T10:35:40.837Z,55.94
2018-08-24T10:36:40.826Z,56.24
2018-08-24T10:37:40.813Z,55.94
2018-08-24T10:38:40.805Z,56.45
2018-08-24T10:39:40.825Z,56.35
2018-08-24T10:40:40.794Z,55.74
2018-08-24T10:41:40.769Z,55.74
2018-08-24T10:42:40.761Z,56.05
2018-08-24T10:43:40.747Z,57.24
2018-08-24T10:44:40.742Z,56.77
2018-08-24T10:45:40.756Z,57.28
2018-08-24T10:46:40.726Z,57.10
2018-08-24T10:47:40.738Z,56.17
2018-08-24T10:48:40.700Z,55.70
2018-08-24T10:49:40.683Z,55.30
2018-08-24T10:50:40.701Z,56.10
2018-08-24T10:51:40.660Z,56.10
2018-08-24T10:52:40.658Z,56.52
2018-08-24T10:53:40.639Z,56.90
2018-08-24T10:54:40.658Z,56.80
2018-08-24T10:55:40.741Z,56.98
2018-08-24T10:56:40.621Z,55.98
2018-08-24T10:57:40.597Z,55.74
2018-08-24T10:58:40.589Z,54.74
2018-08-24T10:59:40.579Z,54.85
2018-08-24T11:00:40.566Z,54.92
2018-08-24T11:01:40.582Z,54.52
2018-08-24T11:02:40.545Z,54.32
2018-08-24T11:03:40.559Z,53.19
2018-08-24T11:04:40.521Z,52.57
2018-08-24T11:05:40.547Z,50.97
2018-08-24T11:06:40.504Z,51.64
2018-08-24T11:07:40.623Z,52.12
2018-08-24T11:08:40.484Z,50.82
2018-08-24T11:09:40.472Z,50.00
2018-08-24T11:10:40.460Z,50.30
2018-08-24T11:11:40.446Z,49.87
2018-08-24T11:12:40.457Z,50.07
2018-08-24T11:13:40.457Z,48.48
2018-08-24T11:14:40.412Z,47.78
2018-08-24T11:15:40.405Z,48.00
2018-08-24T11:16:40.408Z,47.53
2018-08-24T11:17:40.441Z,48.05
2018-08-24T11:18:40.375Z,48.27
2018-08-24T11:19:40.358Z,48.07
2018-08-24T11:20:40.352Z,47.87
2018-08-24T11:21:40.340Z,48.47
2018-08-24T11:22:40.353Z,48.37
2018-08-24T11:23:40.318Z,47.55
2018-08-24T11:24:40.309Z,46.55
2018-08-24T11:25:40.299Z,47.92
2018-08-24T11:26:40.327Z,49.10
2018-08-24T11:27:40.307Z,47.00
2018-08-24T11:28:40.375Z,48.28
2018-08-24T11:29:40.261Z,47.45
2018-08-24T11:30:40.250Z,46.56
2018-08-24T11:31:40.236Z,43.29
2018-08-24T11:32:40.221Z,45.31
2018-08-24T11:33:40.257Z,43.83
2018-08-24T11:34:40.197Z,43.73
2018-08-24T11:35:40.190Z,43.81
2018-08-24T11:36:40.184Z,43.79
2018-08-24T11:37:40.170Z,43.37
2018-08-24T11:38:40.160Z,43.52
2018-08-24T11:39:40.187Z,41.85
2018-08-24T11:40:40.156Z,39.31
2018-08-24T11:41:40.133Z,38.98
2018-08-24T11:42:40.113Z,38.82
2018-08-24T11:43:40.104Z,35.95
2018-08-24T11:44:40.116Z,35.63
2018-08-24T11:45:40.082Z,34.66
2018-08-24T11:46:40.070Z,34.50
2018-08-24T11:47:40.108Z,34.84
2018-08-24T11:48:40.053Z,36.94
2018-08-24T11:49:40.065Z,35.77
2018-08-24T11:50:40.029Z,36.58
2018-08-24T11:51:40.022Z,35.59
2018-08-24T11:52:40.013Z,36.10
2018-08-24T11:53:40.009Z,36.62
2018-08-24T11:54:40.087Z,36.07
2018-08-24T11:55:39.982Z,34.56
2018-08-24T11:56:39.967Z,34.69
2018-08-24T11:57:39.966Z,35.21
2018-08-24T11:58:39.945Z,35.21
2018-08-24T11:59:39.978Z,35.29
2018-08-24T12:00:39.925Z,35.50
2018-08-24T12:01:39.916Z,35.22
2018-08-24T12:02:39.948Z,34.75
2018-08-24T12:03:39.893Z,35.86
2018-08-24T12:04:39.885Z,36.24
2018-08-24T12:05:39.909Z,36.22
2018-08-24T12:06:39.864Z,35.82
2018-08-24T12:07:39.854Z,35.64
2018-08-24T12:08:39.874Z,34.84
2018-08-24T12:09:39.877Z,34.88
2018-08-24T12:10:39.819Z,35.75
2018-08-24T12:11:39.815Z,34.68
2018-08-24T12:12:39.889Z,35.68
2018-08-24T12:13:39.820Z,35.26
2018-08-24T12:14:39.809Z,36.21
2018-08-24T12:15:39.774Z,34.55
2018-08-24T12:16:39.770Z,34.13
2018-08-24T12:17:39.749Z,34.52
2018-08-24T12:18:39.737Z,35.92
2018-08-24T12:19:39.767Z,37.15
2018-08-24T12:20:39.712Z,37.74
2018-08-24T12:21:39.769Z,38.54
2018-08-24T12:22:39.699Z,39.13
2018-08-24T12:23:39.688Z,39.15
2018-08-24T12:24:39.676Z,39.35
2018-08-24T12:25:39.713Z,38.97
2018-08-24T12:26:39.648Z,39.15
2018-08-24T12:27:39.646Z,38.45
2018-08-24T12:28:39.629Z,37.18
2018-08-24T12:29:39.663Z,37.45
2018-08-24T12:30:39.708Z,37.54
2018-08-24T12:31:39.597Z,37.58
2018-08-24T12:32:39.595Z,37.06
2018-08-24T12:33:39.580Z,38.56
2018-08-24T12:34:39.593Z,36.04
2018-08-24T12:35:39.553Z,36.53
2018-08-24T12:36:39.579Z,37.01
2018-08-24T12:37:39.536Z,35.82
2018-08-24T12:38:39.526Z,36.04
2018-08-24T12:39:39.542Z,36.25
2018-08-24T12:40:39.498Z,36.27
2018-08-24T12:41:39.526Z,36.07
2018-08-24T12:42:39.481Z,36.49
2018-08-24T12:43:39.532Z,37.96
2018-08-24T12:44:39.460Z,36.47
2018-08-24T12:45:39.457Z,36.65
2018-08-24T12:46:39.438Z,36.57
2018-08-24T12:47:39.452Z,36.35
2018-08-24T12:48:39.416Z,36.08
2018-08-24T12:49:40.090Z,35.61
2018-08-24T12:50:39.395Z,35.80
2018-08-24T12:51:39.384Z,36.40
2018-08-24T12:52:39.402Z,37.10